Artesia, NM

7:22 AM MDT on October 25, 2014 (GMT -0600)
Roswell Industrial | Change Station
CLOSE
Current Station
Airport
Location: Roswell,
Elevation: 3668 ft
Nearby Weather Stations

Elev 3668 ft 33.30 °N, 104.53 °W | Updated 31 minutes ago

Clear
Clear
51 °F
Feels Like 51 °F
N
0
Wind Variable Wind from North

Today
High -- | Low -- °F
--% Chance of Precip.
Yesterday
High -- | Low -- °F
Precip. -- in
7:09 AM 6:13 PM
Waxing Crescent, 3% visible
Pressure 30.06 in
Visibility 10.0 miles
Clouds Clear
Dew Point 47 °F
Humidity 86%
Rainfall 0.00 in
Snow Depth Not available.
UV 0 out of 12
Pollen 5.70 out of 12
Air Quality Not available.
Flu Activity Sporadic
METAR KROW 251251Z 00000KT 10SM CLR 11/08 A3018 RMK AO2 SLP180 T01060083

More Conditions Fewer Conditions

Pressure 30.06 in
Visibility 10.0 miles
Clouds Clear
Dew Point 47 °F
Humidity 86%
Rainfall 0.00 in
Snow Depth Not available.
UV 0 out of 12
Pollen 5.70 out of 12
Air Quality Not available.
Flu Activity Sporadic
METAR KROW 251251Z 00000KT 10SM CLR 11/08 A3018 RMK AO2 SLP180 T01060083

More Conditions Fewer Conditions

10-Day Weather Forecast

Almanac

Astronomy

Oct. 25, 2014 Rise Set
Actual Time 7:09 AM MDT 6:13 PM MDT
Civil Twilight 6:44 AM MDT 6:38 PM MDT
Nautical Twilight 6:15 AM MDT 7:07 PM MDT
Astronomical Twilight 5:46 AM MDT 7:36 PM MDT
Moon 8:46 AM MDT 7:42 PM MDT
Length of Visible Light 11h 54m
Length of Day
11h 03m
Tomorrow will be 1m 50s shorter.
Waxing Crescent, 3% of the Moon is Illuminated
Today
Waxing Crescent
Oct 30
First Quarter
Nov 6
Full
Nov 14
Last Quarter
Nov 22
New

Today's Extremes

State Highs State Lows

Community

WunderPhotos

Upload Photos

1,764,829 photos uploaded!

Nearby

Snow Depth

Station Depth Elevation
Sierra Blanca 1 in 10280 ft
McKnight Cabin 0 in 9240 ft
Lookout Mountain 0 in 8500 ft
Wesner Springs 0 in 11120 ft
Signal Peak 0 in 8360 ft

Earthquake Activity

City Distance Mag. Time & Date
No recent earthquake activity has been reported nearby.
Minimum magnitude displayed is 2.5.

Coastal Water Temperatures

Place Temperature
No Stations Reporting

Nearby Weather Stations